createdAt,value
2019-04-06T00:00:57.244Z,48.27
2019-04-06T00:02:03.599Z,48.63
2019-04-06T00:03:07.848Z,51.83
2019-04-06T00:04:12.089Z,47.73
2019-04-06T00:05:16.894Z,63.17
2019-04-06T00:06:21.095Z,50.00
2019-04-06T00:07:25.367Z,53.53
2019-04-06T00:08:29.601Z,58.00
2019-04-06T00:09:33.829Z,63.47
2019-04-06T00:10:38.055Z,77.57
2019-04-06T00:11:42.275Z,58.23
2019-04-06T00:12:46.527Z,55.33
2019-04-06T00:13:50.784Z,52.43
2019-04-06T00:14:54.987Z,49.60
2019-04-06T00:15:59.387Z,48.87
2019-04-06T00:17:03.739Z,48.03
2019-04-06T00:18:08.007Z,47.83
2019-04-06T00:19:12.271Z,64.60
2019-04-06T00:20:16.521Z,66.50
2019-04-06T00:21:20.745Z,47.23
2019-04-06T00:22:25.028Z,50.17
2019-04-06T00:23:29.290Z,46.00
2019-04-06T00:24:33.524Z,48.40
2019-04-06T00:25:44.325Z,47.40
2019-04-06T00:26:43.648Z,50.23
2019-04-06T00:27:47.908Z,49.57
2019-04-06T00:28:52.178Z,51.03
2019-04-06T00:29:56.415Z,47.97
2019-04-06T00:31:22.537Z,44.10
2019-04-06T00:32:49.448Z,59.20
2019-04-06T00:33:53.672Z,50.47
2019-04-06T00:34:57.959Z,51.50
2019-04-06T00:36:02.185Z,48.40
2019-04-06T00:37:06.399Z,48.30
2019-04-06T00:38:10.680Z,51.57
2019-04-06T00:39:14.956Z,49.13
2019-04-06T00:40:19.258Z,49.10
2019-04-06T00:41:23.491Z,47.70
2019-04-06T00:42:27.726Z,48.27
2019-04-06T00:43:31.983Z,50.43
2019-04-06T00:44:36.226Z,50.47
2019-04-06T00:45:40.560Z,59.73
2019-04-06T00:46:44.804Z,47.93
2019-04-06T00:47:49.071Z,49.80
2019-04-06T00:48:53.319Z,45.47
2019-04-06T00:49:57.550Z,51.53
2019-04-06T00:51:01.770Z,52.67
2019-04-06T00:52:06.022Z,47.67
2019-04-06T00:53:10.327Z,49.13
2019-04-06T00:54:16.220Z,50.33
2019-04-06T00:55:20.479Z,48.43
2019-04-06T00:56:24.630Z,51.73
2019-04-06T00:57:28.786Z,50.53
2019-04-06T00:58:33.031Z,52.37
2019-04-06T00:59:37.267Z,52.67
2019-04-06T01:00:41.500Z,52.93
2019-04-06T01:01:45.730Z,51.97
2019-04-06T01:02:49.954Z,52.70
2019-04-06T01:03:54.206Z,56.23
2019-04-06T01:04:58.438Z,54.60
2019-04-06T01:06:02.672Z,52.00
2019-04-06T01:07:06.912Z,51.97
2019-04-06T01:08:11.136Z,57.37
2019-04-06T01:09:15.441Z,50.90
2019-04-06T01:10:19.660Z,53.60
2019-04-06T01:11:23.937Z,54.17
2019-04-06T01:12:28.111Z,58.23
2019-04-06T01:13:32.372Z,51.47
2019-04-06T01:14:36.604Z,53.03
2019-04-06T01:15:40.831Z,53.07
2019-04-06T01:16:45.055Z,52.37
2019-04-06T01:17:49.267Z,49.43
2019-04-06T01:18:53.547Z,53.00
2019-04-06T01:19:57.765Z,52.90
2019-04-06T01:21:01.987Z,52.97
2019-04-06T01:22:06.233Z,58.60
2019-04-06T01:23:10.468Z,49.43
2019-04-06T01:24:14.733Z,49.33
2019-04-06T01:25:18.967Z,51.27
2019-04-06T01:26:23.205Z,53.77
2019-04-06T01:27:27.444Z,52.80
2019-04-06T01:28:31.679Z,52.53
2019-04-06T01:29:35.949Z,49.77
2019-04-06T01:30:40.176Z,54.37
2019-04-06T01:31:44.394Z,55.40
2019-04-06T01:32:48.601Z,51.27
2019-04-06T01:33:52.808Z,53.37
2019-04-06T01:34:57.067Z,51.30
2019-04-06T01:36:01.299Z,52.87
2019-04-06T01:37:05.539Z,51.17
2019-04-06T01:38:09.870Z,53.80
2019-04-06T01:39:14.136Z,53.47
2019-04-06T01:40:18.384Z,52.73
2019-04-06T01:41:22.661Z,48.87
2019-04-06T01:42:26.944Z,50.00
2019-04-06T01:43:31.124Z,52.80
2019-04-06T01:44:35.375Z,50.93
2019-04-06T01:45:39.616Z,50.90
2019-04-06T01:46:43.846Z,54.30
2019-04-06T01:47:48.077Z,52.27
2019-04-06T01:48:52.311Z,59.77
2019-04-06T01:49:56.580Z,56.73
2019-04-06T01:51:00.813Z,53.27
2019-04-06T01:52:05.043Z,53.47
2019-04-06T01:53:09.387Z,48.37
2019-04-06T01:54:13.657Z,56.00
2019-04-06T01:55:17.896Z,53.03
2019-04-06T01:56:22.135Z,54.40
2019-04-06T01:57:26.432Z,55.87
2019-04-06T01:58:30.629Z,53.20
2019-04-06T01:59:34.892Z,53.77
2019-04-06T02:00:41.363Z,53.63
2019-04-06T02:01:55.930Z,52.57
2019-04-06T02:03:00.157Z,56.40
2019-04-06T02:04:04.408Z,59.87
2019-04-06T02:05:09.069Z,55.73
2019-04-06T02:06:13.350Z,52.40
2019-04-06T02:07:17.519Z,52.63
2019-04-06T02:08:21.754Z,52.10
2019-04-06T02:09:25.970Z,55.83
2019-04-06T02:10:30.265Z,54.27
2019-04-06T02:11:34.585Z,55.70
2019-04-06T02:12:38.831Z,52.93
2019-04-06T02:13:43.058Z,55.53
2019-04-06T02:14:47.314Z,48.47
2019-04-06T02:15:51.643Z,55.87
2019-04-06T02:16:55.870Z,56.57
2019-04-06T02:18:00.088Z,61.43
2019-04-06T02:19:04.366Z,51.00
2019-04-06T02:20:08.562Z,56.17
2019-04-06T02:21:12.783Z,47.33
2019-04-06T02:22:17.038Z,50.40
2019-04-06T02:23:21.258Z,52.77
2019-04-06T02:24:25.549Z,54.83
2019-04-06T02:25:29.776Z,54.47
2019-04-06T02:26:34.024Z,57.40
2019-04-06T02:27:38.247Z,62.33
2019-04-06T02:28:42.468Z,60.03
2019-04-06T02:29:46.723Z,57.77
2019-04-06T02:31:16.613Z,55.33
2019-04-06T02:32:33.478Z,51.10
2019-04-06T02:34:06.100Z,54.57
2019-04-06T02:35:44.709Z,55.83
2019-04-06T02:37:13.667Z,56.20
2019-04-06T02:38:35.472Z,55.40
2019-04-06T02:39:57.270Z,53.60
2019-04-06T02:41:16.121Z,54.83
2019-04-06T02:42:24.484Z,68.63
2019-04-06T02:43:31.357Z,55.37
2019-04-06T02:44:35.589Z,57.87
2019-04-06T02:45:39.836Z,57.80
2019-04-06T02:46:44.062Z,55.37
2019-04-06T02:47:48.284Z,56.80
2019-04-06T02:48:52.524Z,53.07
2019-04-06T02:49:56.746Z,56.67
2019-04-06T02:51:01.009Z,58.67
2019-04-06T02:52:05.225Z,59.83
2019-04-06T02:53:09.457Z,62.50
2019-04-06T02:54:13.676Z,58.07
2019-04-06T02:55:17.946Z,60.33
2019-04-06T02:56:22.186Z,60.37
2019-04-06T02:57:26.429Z,59.57
2019-04-06T02:58:30.649Z,54.07
2019-04-06T02:59:34.887Z,63.93
2019-04-06T03:00:39.151Z,63.23
2019-04-06T03:01:43.383Z,56.50
2019-04-06T03:02:47.634Z,63.17
2019-04-06T03:03:51.865Z,56.73
2019-04-06T03:04:56.084Z,61.70
2019-04-06T03:06:00.339Z,63.70
2019-04-06T03:07:04.563Z,58.33
2019-04-06T03:08:08.796Z,57.80
2019-04-06T03:09:13.157Z,62.57
2019-04-06T03:10:17.463Z,64.17
2019-04-06T03:11:21.716Z,68.97
2019-04-06T03:12:26.069Z,59.50
2019-04-06T03:13:30.303Z,64.10
2019-04-06T03:14:34.513Z,63.37
2019-04-06T03:15:38.777Z,64.07
2019-04-06T03:16:43.014Z,62.07
2019-04-06T03:17:47.238Z,60.37
2019-04-06T03:18:51.464Z,60.47
2019-04-06T03:19:55.730Z,61.37
2019-04-06T03:20:59.956Z,65.77
2019-04-06T03:22:04.325Z,63.53
2019-04-06T03:23:08.601Z,63.77
2019-04-06T03:24:12.929Z,59.37
2019-04-06T03:25:17.159Z,69.37
2019-04-06T03:26:21.428Z,68.07
2019-04-06T03:27:25.662Z,65.00
2019-04-06T03:28:29.912Z,65.40
2019-04-06T03:29:34.412Z,67.57
2019-04-06T03:30:38.731Z,61.30
2019-04-06T03:31:42.927Z,70.37
2019-04-06T03:32:47.164Z,67.67
2019-04-06T03:33:51.395Z,75.47
2019-04-06T03:34:55.739Z,72.17
2019-04-06T03:36:00.038Z,75.07
2019-04-06T03:37:04.259Z,69.53
2019-04-06T03:38:08.497Z,68.30
2019-04-06T03:39:12.713Z,72.63
2019-04-06T03:40:16.972Z,68.80
2019-04-06T03:41:21.262Z,63.73
2019-04-06T03:42:25.501Z,75.67
2019-04-06T03:43:29.739Z,75.10
2019-04-06T03:44:34.133Z,71.60
2019-04-06T03:45:38.484Z,73.13
2019-04-06T03:46:42.744Z,80.47
2019-04-06T03:47:46.977Z,78.00
2019-04-06T03:48:51.214Z,66.63
2019-04-06T03:49:55.426Z,69.43
2019-04-06T03:50:59.754Z,79.00
2019-04-06T03:52:04.049Z,77.87
2019-04-06T03:53:08.262Z,70.83
2019-04-06T03:54:12.464Z,77.60
2019-04-06T03:55:16.743Z,76.43
2019-04-06T03:56:21.109Z,66.67
2019-04-06T03:57:25.330Z,75.00
2019-04-06T03:58:29.596Z,66.80
2019-04-06T03:59:33.820Z,79.17
2019-04-06T04:00:38.068Z,79.67
2019-04-06T04:01:42.312Z,72.13
2019-04-06T04:02:46.533Z,69.00
2019-04-06T04:03:50.765Z,72.37
2019-04-06T04:04:55.042Z,71.03
2019-04-06T04:05:59.215Z,70.67
2019-04-06T04:07:03.653Z,73.97
2019-04-06T04:08:07.951Z,82.13
2019-04-06T04:09:12.168Z,76.93
2019-04-06T04:10:33.932Z,71.70
2019-04-06T04:11:38.237Z,68.50
2019-04-06T04:12:42.434Z,73.33
2019-04-06T04:13:46.660Z,74.27
2019-04-06T04:14:50.929Z,75.13
2019-04-06T04:15:57.116Z,73.10
2019-04-06T04:17:01.240Z,73.63
2019-04-06T04:18:05.507Z,75.40
2019-04-06T04:19:10.103Z,75.80
2019-04-06T04:20:14.331Z,75.03
2019-04-06T04:21:18.572Z,75.73
2019-04-06T04:22:22.845Z,73.27
2019-04-06T04:23:27.070Z,73.80
2019-04-06T04:24:31.317Z,77.73
2019-04-06T04:25:35.638Z,73.33
2019-04-06T04:26:39.871Z,76.37
2019-04-06T04:27:44.128Z,76.57
2019-04-06T04:28:48.356Z,73.90
2019-04-06T04:29:52.597Z,74.60
2019-04-06T04:30:56.840Z,76.87
2019-04-06T04:32:01.406Z,76.87
2019-04-06T04:33:05.651Z,69.53
2019-04-06T04:34:09.981Z,72.50
2019-04-06T04:35:14.168Z,73.60
2019-04-06T04:36:18.413Z,79.87
2019-04-06T04:37:22.683Z,78.03
2019-04-06T04:38:26.928Z,73.73
2019-04-06T04:39:31.157Z,84.50
2019-04-06T04:40:35.435Z,83.50
2019-04-06T04:41:40.371Z,82.17
2019-04-06T04:42:44.809Z,73.37
2019-04-06T04:43:49.087Z,77.67
2019-04-06T04:44:53.360Z,86.40
2019-04-06T04:45:57.659Z,84.73
2019-04-06T04:47:02.025Z,78.13
2019-04-06T04:48:06.334Z,83.33
2019-04-06T04:49:10.569Z,84.07
2019-04-06T04:50:14.793Z,82.40
2019-04-06T04:51:19.015Z,78.17
2019-04-06T04:52:23.264Z,82.70
2019-04-06T04:53:27.505Z,82.77
2019-04-06T04:54:31.740Z,81.37
2019-04-06T04:55:36.010Z,83.23
2019-04-06T04:56:40.224Z,83.23
2019-04-06T04:57:45.583Z,79.30
2019-04-06T04:58:49.945Z,74.67
2019-04-06T04:59:54.174Z,84.33
2019-04-06T05:00:58.412Z,82.47
2019-04-06T05:02:02.679Z,85.80
2019-04-06T05:03:06.916Z,86.77
2019-04-06T05:04:11.130Z,94.27
2019-04-06T05:05:15.368Z,81.60
2019-04-06T05:06:19.602Z,85.87
2019-04-06T05:07:23.844Z,87.90
2019-04-06T05:08:28.136Z,86.13
2019-04-06T05:09:32.465Z,81.80
2019-04-06T05:10:36.787Z,85.90
2019-04-06T05:11:41.017Z,88.13
2019-04-06T05:12:45.297Z,87.40
2019-04-06T05:13:49.532Z,84.27
2019-04-06T05:15:00.833Z,86.63
2019-04-06T05:16:13.119Z,81.10
2019-04-06T05:17:17.515Z,88.43
2019-04-06T05:18:21.867Z,84.97
2019-04-06T05:19:26.099Z,90.23
2019-04-06T05:20:30.304Z,87.77
2019-04-06T05:21:34.534Z,88.40
2019-04-06T05:22:38.779Z,90.63
2019-04-06T05:23:43.035Z,97.33
2019-04-06T05:24:47.275Z,91.83
2019-04-06T05:25:51.502Z,85.97
2019-04-06T05:26:55.863Z,91.97
2019-04-06T05:28:00.112Z,88.47
2019-04-06T05:29:04.349Z,90.03
2019-04-06T05:30:09.034Z,88.60
2019-04-06T05:31:13.277Z,88.97
2019-04-06T05:32:17.561Z,90.80
2019-04-06T05:33:21.815Z,92.57
2019-04-06T05:34:26.085Z,94.63
2019-04-06T05:35:30.317Z,88.43
2019-04-06T05:36:34.560Z,87.00
2019-04-06T05:37:39.002Z,96.60
2019-04-06T05:38:43.247Z,89.37
2019-04-06T05:39:47.532Z,91.50
2019-04-06T05:40:52.045Z,85.70
2019-04-06T05:41:56.399Z,90.17
2019-04-06T05:43:00.731Z,84.10
2019-04-06T05:44:05.147Z,89.53
2019-04-06T05:45:09.488Z,90.73
2019-04-06T05:46:13.672Z,84.67
2019-04-06T05:47:17.914Z,93.97
2019-04-06T05:48:22.355Z,86.10
2019-04-06T05:49:26.620Z,90.53
2019-04-06T05:50:30.847Z,91.07
2019-04-06T05:51:35.092Z,94.97
2019-04-06T05:52:39.715Z,87.43
2019-04-06T05:53:44.008Z,80.77
2019-04-06T05:54:48.239Z,86.30
2019-04-06T05:55:52.492Z,91.53
2019-04-06T05:56:56.712Z,89.27
2019-04-06T05:58:04.002Z,82.30
2019-04-06T05:59:10.077Z,84.07
2019-04-06T06:00:12.731Z,83.20
2019-04-06T06:01:16.974Z,88.77
2019-04-06T06:02:21.342Z,79.37
2019-04-06T06:03:25.869Z,91.53
2019-04-06T06:04:30.263Z,87.93
2019-04-06T06:05:34.540Z,80.37
2019-04-06T06:06:38.782Z,88.43
2019-04-06T06:07:43.007Z,82.77
2019-04-06T06:08:47.256Z,84.43
2019-04-06T06:09:51.494Z,91.63
2019-04-06T06:10:55.719Z,81.77
2019-04-06T06:12:00.350Z,86.10
2019-04-06T06:13:04.503Z,87.13
2019-04-06T06:14:08.755Z,80.17
2019-04-06T06:15:12.982Z,83.33
2019-04-06T06:16:17.220Z,87.63
2019-04-06T06:17:21.445Z,87.47
2019-04-06T06:18:27.635Z,87.67
2019-04-06T06:19:31.628Z,85.93
2019-04-06T06:20:35.854Z,87.90
2019-04-06T06:21:40.083Z,87.70
2019-04-06T06:22:44.331Z,81.00
2019-04-06T06:23:48.593Z,78.93
2019-04-06T06:24:52.853Z,81.00
2019-04-06T06:25:57.044Z,90.13
2019-04-06T06:27:01.453Z,84.23
2019-04-06T06:28:14.393Z,82.00
2019-04-06T06:29:11.724Z,79.67
2019-04-06T06:30:15.951Z,81.50
2019-04-06T06:31:20.183Z,79.33
2019-04-06T06:32:24.807Z,84.47
2019-04-06T06:33:29.204Z,88.07
2019-04-06T06:34:33.878Z,80.73
2019-04-06T06:35:38.097Z,84.13
2019-04-06T06:36:42.477Z,81.33
2019-04-06T06:37:46.712Z,83.67
2019-04-06T06:38:51.524Z,86.90
2019-04-06T06:39:55.885Z,82.10
2019-04-06T06:41:00.148Z,76.67
2019-04-06T06:42:05.094Z,76.40
2019-04-06T06:43:09.302Z,89.00
2019-04-06T06:44:13.562Z,79.87
2019-04-06T06:45:18.326Z,80.83
2019-04-06T06:46:22.550Z,79.13
2019-04-06T06:47:26.777Z,80.80
2019-04-06T06:48:31.260Z,76.97
2019-04-06T06:49:35.543Z,81.87
2019-04-06T06:50:39.714Z,81.70
2019-04-06T06:51:43.969Z,78.73
2019-04-06T06:52:48.243Z,82.67
2019-04-06T06:53:52.461Z,79.40
2019-04-06T06:54:56.711Z,87.97
2019-04-06T06:56:00.948Z,82.53
2019-04-06T06:57:05.209Z,85.10
2019-04-06T06:58:09.432Z,76.60
2019-04-06T06:59:13.667Z,77.40
2019-04-06T07:00:18.080Z,79.17
2019-04-06T07:01:22.351Z,80.50
2019-04-06T07:02:26.596Z,83.97
2019-04-06T07:03:30.846Z,79.87
2019-04-06T07:04:35.107Z,78.27
2019-04-06T07:05:39.382Z,81.80
2019-04-06T07:06:43.574Z,86.37
2019-04-06T07:07:47.819Z,80.40
2019-04-06T07:08:52.043Z,82.23
2019-04-06T07:10:04.459Z,84.50
2019-04-06T07:11:02.184Z,79.97
2019-04-06T07:12:06.403Z,82.27
2019-04-06T07:13:10.693Z,87.27
2019-04-06T07:14:14.993Z,83.07
2019-04-06T07:15:19.311Z,81.83
2019-04-06T07:16:23.656Z,80.63
2019-04-06T07:17:27.924Z,78.67
2019-04-06T07:18:32.152Z,81.60
2019-04-06T07:19:36.399Z,84.27
2019-04-06T07:20:40.660Z,86.70
2019-04-06T07:21:44.921Z,74.77
2019-04-06T07:22:49.166Z,82.20
2019-04-06T07:23:53.325Z,74.93
2019-04-06T07:24:57.562Z,81.03
2019-04-06T07:26:01.826Z,86.17
2019-04-06T07:27:06.061Z,75.67
2019-04-06T07:28:10.300Z,82.63
2019-04-06T07:29:14.621Z,84.30
2019-04-06T07:30:18.882Z,83.40
2019-04-06T07:31:23.132Z,80.97
2019-04-06T07:32:27.366Z,88.43
2019-04-06T07:33:31.722Z,89.93
2019-04-06T07:34:36.136Z,92.03
2019-04-06T07:35:40.386Z,77.80
2019-04-06T07:36:44.618Z,78.67
2019-04-06T07:37:48.887Z,72.07
2019-04-06T07:38:53.113Z,87.20
2019-04-06T07:39:57.350Z,84.90
2019-04-06T07:41:02.935Z,83.57
2019-04-06T07:42:07.356Z,89.73
2019-04-06T07:43:11.559Z,83.43
2019-04-06T07:44:15.828Z,86.67
2019-04-06T07:45:20.136Z,88.40
2019-04-06T07:46:24.405Z,84.70
2019-04-06T07:47:28.623Z,83.90
2019-04-06T07:48:32.861Z,94.53
2019-04-06T07:49:37.087Z,82.23
2019-04-06T07:50:41.513Z,80.37
2019-04-06T07:51:45.782Z,80.77
2019-04-06T07:52:50.125Z,81.53
2019-04-06T07:53:54.380Z,76.80
2019-04-06T07:54:58.723Z,83.17
2019-04-06T07:56:03.224Z,86.93
2019-04-06T07:57:07.574Z,85.53
2019-04-06T07:58:12.808Z,85.50
2019-04-06T07:59:17.037Z,85.73
2019-04-06T08:00:21.434Z,81.10
2019-04-06T08:01:25.862Z,87.73
2019-04-06T08:02:30.173Z,75.83
2019-04-06T08:03:34.698Z,82.80
2019-04-06T08:04:38.943Z,89.67
2019-04-06T08:05:43.351Z,82.10
2019-04-06T08:06:47.574Z,79.80
2019-04-06T08:07:51.949Z,83.40
2019-04-06T08:08:56.159Z,84.93
2019-04-06T08:10:00.398Z,76.87
2019-04-06T08:11:04.732Z,81.23
2019-04-06T08:12:08.979Z,80.90
2019-04-06T08:13:13.203Z,83.87
2019-04-06T08:14:17.443Z,80.73
2019-04-06T08:15:21.962Z,77.27
2019-04-06T08:16:26.231Z,79.67
2019-04-06T08:17:30.658Z,79.77
2019-04-06T08:18:34.907Z,87.40
2019-04-06T08:19:39.124Z,75.23
2019-04-06T08:20:44.195Z,70.77
2019-04-06T08:21:48.468Z,80.30
2019-04-06T08:22:52.753Z,81.47
2019-04-06T08:23:57.017Z,77.40
2019-04-06T08:25:01.492Z,80.87
2019-04-06T08:26:05.823Z,73.60
2019-04-06T08:27:10.187Z,78.53
2019-04-06T08:28:14.405Z,78.10
2019-04-06T08:29:18.643Z,74.03
2019-04-06T08:30:22.872Z,70.00
2019-04-06T08:31:27.134Z,76.30
2019-04-06T08:32:31.423Z,75.33
2019-04-06T08:33:35.756Z,80.93
2019-04-06T08:34:40.037Z,68.87
2019-04-06T08:35:44.287Z,71.93
2019-04-06T08:36:48.592Z,72.43
2019-04-06T08:37:52.940Z,71.43
2019-04-06T08:38:57.392Z,70.43
2019-04-06T08:40:01.632Z,78.03
2019-04-06T08:41:05.856Z,71.87
2019-04-06T08:42:10.124Z,67.93
2019-04-06T08:43:14.524Z,72.13
2019-04-06T08:44:18.899Z,73.97
2019-04-06T08:45:23.375Z,67.77
2019-04-06T08:46:27.930Z,66.03
2019-04-06T08:47:32.307Z,69.17
2019-04-06T08:48:36.604Z,71.80
2019-04-06T08:49:40.827Z,67.33
2019-04-06T08:50:45.384Z,67.43
2019-04-06T08:51:49.662Z,64.73
2019-04-06T08:52:53.936Z,55.37
2019-04-06T08:53:58.254Z,65.23
2019-04-06T08:55:02.725Z,62.60
2019-04-06T08:56:07.594Z,63.63
2019-04-06T08:57:11.947Z,64.57
2019-04-06T08:58:16.342Z,65.63
2019-04-06T08:59:20.712Z,64.37
2019-04-06T09:00:25.052Z,61.90
2019-04-06T09:01:29.417Z,60.20
2019-04-06T09:02:34.016Z,60.27
2019-04-06T09:03:38.539Z,59.27
2019-04-06T09:04:42.797Z,61.40
2019-04-06T09:05:47.124Z,57.47
2019-04-06T09:06:51.763Z,48.37
2019-04-06T09:07:56.189Z,60.30
2019-04-06T09:09:00.423Z,52.37
2019-04-06T09:10:05.071Z,42.30
2019-04-06T09:11:09.278Z,56.03
2019-04-06T09:12:13.540Z,54.47
2019-04-06T09:13:17.832Z,55.43
2019-04-06T09:14:22.091Z,56.17
2019-04-06T09:15:26.651Z,55.93
2019-04-06T09:16:30.883Z,56.60
2019-04-06T09:17:35.155Z,55.70
2019-04-06T09:18:39.594Z,55.03
2019-04-06T09:19:44.475Z,53.20
2019-04-06T09:20:48.935Z,55.58
2019-04-06T09:21:53.245Z,51.37
2019-04-06T09:22:57.537Z,50.90
2019-04-06T09:24:01.913Z,51.42
2019-04-06T09:25:06.588Z,50.55
2019-04-06T09:26:10.855Z,49.38
2019-04-06T09:27:15.115Z,47.78
2019-04-06T09:28:19.498Z,49.98
2019-04-06T09:29:24.646Z,51.13
2019-04-06T09:30:29.385Z,48.25
2019-04-06T09:31:33.621Z,43.35
2019-04-06T09:32:37.931Z,46.92
2019-04-06T09:33:42.185Z,48.08
2019-04-06T09:34:46.356Z,46.48
2019-04-06T09:35:50.613Z,44.20
2019-04-06T09:36:55.129Z,48.33
2019-04-06T09:37:59.480Z,49.48
2019-04-06T09:39:05.545Z,51.33
2019-04-06T09:40:09.788Z,48.00
2019-04-06T09:41:14.043Z,51.35
2019-04-06T09:42:18.282Z,49.33
2019-04-06T09:43:22.544Z,50.48
2019-04-06T09:44:44.812Z,51.08
2019-04-06T09:46:16.947Z,51.85
2019-04-06T09:47:28.034Z,45.15
2019-04-06T09:48:44.083Z,47.65
2019-04-06T09:50:05.883Z,48.05
2019-04-06T09:51:16.941Z,45.40
2019-04-06T09:52:31.278Z,46.28
2019-04-06T09:54:04.567Z,41.33
2019-04-06T09:55:09.986Z,42.00
2019-04-06T09:56:36.176Z,43.92
2019-04-06T09:57:48.340Z,43.63
2019-04-06T09:59:15.515Z,49.08
2019-04-06T10:00:35.932Z,44.70
2019-04-06T10:02:05.024Z,42.93
2019-04-06T10:03:40.873Z,45.75
2019-04-06T10:05:13.302Z,45.38
2019-04-06T10:06:48.887Z,44.88
2019-04-06T10:08:24.228Z,43.23
2019-04-06T10:09:39.479Z,46.85
2019-04-06T10:11:02.716Z,45.90
2019-04-06T10:12:31.711Z,46.60
2019-04-06T10:13:54.928Z,47.08
2019-04-06T10:15:21.177Z,47.55
2019-04-06T10:16:35.964Z,46.18
2019-04-06T10:18:11.434Z,44.03
2019-04-06T10:19:33.687Z,46.92
2019-04-06T10:20:55.763Z,46.65
2019-04-06T10:22:22.960Z,48.50
2019-04-06T10:23:55.459Z,47.53
2019-04-06T10:25:17.567Z,47.03
2019-04-06T10:26:39.865Z,46.73
2019-04-06T10:28:10.038Z,47.30
2019-04-06T10:29:48.362Z,46.20
2019-04-06T10:31:02.441Z,47.83
2019-04-06T10:32:25.955Z,47.25
2019-04-06T10:33:40.267Z,61.15
2019-04-06T10:35:12.311Z,47.30
2019-04-06T10:36:44.664Z,49.60
2019-04-06T10:38:26.123Z,46.48
2019-04-06T10:39:38.746Z,45.10
2019-04-06T10:41:01.393Z,46.75
2019-04-06T10:42:23.865Z,46.23
2019-04-06T10:43:44.610Z,46.77
2019-04-06T10:44:59.415Z,48.28
2019-04-06T10:46:22.588Z,89.58
2019-04-06T10:47:54.060Z,84.72
2019-04-06T10:49:17.399Z,67.30
2019-04-06T10:50:39.219Z,56.77
2019-04-06T10:52:17.752Z,44.98
2019-04-06T10:53:50.285Z,52.53
2019-04-06T10:55:19.680Z,70.32
2019-04-06T10:56:58.205Z,46.42
2019-04-06T10:58:20.050Z,43.58
2019-04-06T10:59:37.982Z,44.25
2019-04-06T11:00:57.707Z,43.80
2019-04-06T11:02:19.849Z,52.70
2019-04-06T11:03:30.037Z,45.17
2019-04-06T11:04:39.765Z,50.00
2019-04-06T11:06:11.750Z,68.10
2019-04-06T11:07:33.954Z,45.48
2019-04-06T11:08:59.855Z,72.85
2019-04-06T11:10:27.999Z,53.85
2019-04-06T11:11:43.461Z,46.53
2019-04-06T11:13:05.496Z,45.12
2019-04-06T11:14:18.615Z,45.00
2019-04-06T11:15:37.258Z,47.08
2019-04-06T11:16:52.286Z,46.35
2019-04-06T11:18:14.279Z,45.92
2019-04-06T11:19:37.481Z,44.35
2019-04-06T11:20:51.786Z,43.92
2019-04-06T11:22:17.105Z,43.95
2019-04-06T11:23:40.230Z,46.55
2019-04-06T11:25:02.578Z,54.03
2019-04-06T11:26:25.866Z,45.63
2019-04-06T11:27:49.395Z,44.00
2019-04-06T11:29:15.826Z,43.75
2019-04-06T11:30:36.320Z,66.67
2019-04-06T11:32:08.897Z,46.70
2019-04-06T11:33:22.482Z,42.03
2019-04-06T11:34:52.063Z,44.60
2019-04-06T11:36:18.078Z,42.40
2019-04-06T11:37:47.501Z,126.85
2019-04-06T11:39:10.784Z,44.58
2019-04-06T11:40:46.435Z,44.70
2019-04-06T11:42:12.804Z,42.55
2019-04-06T11:43:26.132Z,43.38
2019-04-06T11:44:39.674Z,50.10
2019-04-06T11:46:11.276Z,42.93
2019-04-06T11:47:34.455Z,49.20
2019-04-06T11:48:56.940Z,43.65
2019-04-06T11:50:26.004Z,49.27
2019-04-06T11:51:50.900Z,45.33
2019-04-06T11:53:29.822Z,43.05
2019-04-06T11:54:55.100Z,43.92
2019-04-06T11:56:27.179Z,47.30
2019-04-06T11:57:47.567Z,45.85
2019-04-06T11:59:13.930Z,45.95
2019-04-06T12:00:34.743Z,58.30
2019-04-06T12:02:00.865Z,46.05
2019-04-06T12:03:36.342Z,51.65
2019-04-06T12:05:05.531Z,46.92
2019-04-06T12:06:44.359Z,45.55
2019-04-06T12:08:10.399Z,54.58
2019-04-06T12:09:36.297Z,51.75
2019-04-06T12:10:59.748Z,47.83
2019-04-06T12:12:10.243Z,48.98
2019-04-06T12:13:42.547Z,49.08
2019-04-06T12:14:57.072Z,54.67
2019-04-06T12:16:26.100Z,43.10
2019-04-06T12:17:48.774Z,47.48
2019-04-06T12:19:07.741Z,51.25
2019-04-06T12:20:29.511Z,43.02
2019-04-06T12:21:55.449Z,47.62
2019-04-06T12:23:17.478Z,47.10
2019-04-06T12:24:46.728Z,73.57
2019-04-06T12:26:08.835Z,47.78
2019-04-06T12:27:35.180Z,45.55
2019-04-06T12:28:58.279Z,43.70
2019-04-06T12:30:21.440Z,43.80
2019-04-06T12:32:03.075Z,44.77
2019-04-06T12:33:25.208Z,45.52
2019-04-06T12:34:47.300Z,40.83
2019-04-06T12:36:10.525Z,38.10
2019-04-06T12:37:42.339Z,46.77
2019-04-06T12:38:57.813Z,42.40
2019-04-06T12:40:26.890Z,42.53
2019-04-06T12:41:56.092Z,47.75
2019-04-06T12:43:25.568Z,48.33
2019-04-06T12:44:52.166Z,44.60
2019-04-06T12:46:15.356Z,48.23
2019-04-06T12:47:41.882Z,46.00
2019-04-06T12:49:04.823Z,42.80
2019-04-06T12:50:21.115Z,44.85
2019-04-06T12:51:34.268Z,44.75
2019-04-06T12:53:00.493Z,41.50
2019-04-06T12:54:26.731Z,42.08
2019-04-06T12:55:52.905Z,48.20
2019-04-06T12:57:13.003Z,45.30
2019-04-06T12:58:23.734Z,44.13
2019-04-06T12:59:50.054Z,46.05
2019-04-06T13:01:07.198Z,46.08
2019-04-06T13:02:17.510Z,46.05
2019-04-06T13:03:52.916Z,46.30
2019-04-06T13:05:22.678Z,45.95
2019-04-06T13:06:58.244Z,47.98
2019-04-06T13:08:24.299Z,48.05
2019-04-06T13:09:53.301Z,53.15
2019-04-06T13:11:34.718Z,47.25
2019-04-06T13:13:10.313Z,45.52
2019-04-06T13:14:39.323Z,48.80
2019-04-06T13:15:49.236Z,43.58
2019-04-06T13:17:03.703Z,44.80
2019-04-06T13:18:25.778Z,47.08
2019-04-06T13:19:52.108Z,48.30
2019-04-06T13:21:19.599Z,46.28
2019-04-06T13:22:34.593Z,43.75
2019-04-06T13:23:44.162Z,44.50
2019-04-06T13:25:04.802Z,48.23
2019-04-06T13:26:26.976Z,46.00
2019-04-06T13:27:49.243Z,43.50
2019-04-06T13:29:10.504Z,45.93
2019-04-06T13:30:37.557Z,43.33
2019-04-06T13:32:16.131Z,42.80
2019-04-06T13:33:39.395Z,42.10
2019-04-06T13:34:49.565Z,45.53
2019-04-06T13:36:10.256Z,41.73
2019-04-06T13:37:33.439Z,44.20
2019-04-06T13:38:44.963Z,41.40
2019-04-06T13:40:06.985Z,43.33
2019-04-06T13:41:22.871Z,45.43
2019-04-06T13:42:44.644Z,46.07
2019-04-06T13:44:04.887Z,42.37
2019-04-06T13:45:26.946Z,41.30
2019-04-06T13:46:55.680Z,45.23
2019-04-06T13:48:23.847Z,42.70
2019-04-06T13:49:50.297Z,40.80
2019-04-06T13:51:16.252Z,37.73
2019-04-06T13:52:39.833Z,40.47
2019-04-06T13:53:51.315Z,40.63
2019-04-06T13:55:08.711Z,40.37
2019-04-06T13:56:23.588Z,47.00
2019-04-06T13:57:35.800Z,44.17
2019-04-06T13:58:57.569Z,43.90
2019-04-06T14:00:20.972Z,43.40
2019-04-06T14:01:37.957Z,39.63
2019-04-06T14:02:57.335Z,43.17
2019-04-06T14:04:23.722Z,43.47
2019-04-06T14:05:35.203Z,39.40
2019-04-06T14:06:55.959Z,43.37
2019-04-06T14:08:16.547Z,41.40
2019-04-06T14:09:38.757Z,41.53
2019-04-06T14:10:58.212Z,41.50
2019-04-06T14:12:25.316Z,39.07
2019-04-06T14:13:57.500Z,40.30
2019-04-06T14:15:29.737Z,36.30
2019-04-06T14:16:48.918Z,40.43
2019-04-06T14:18:03.671Z,39.00
2019-04-06T14:19:33.243Z,40.37
2019-04-06T14:20:59.168Z,39.77
2019-04-06T14:22:22.339Z,34.17
2019-04-06T14:24:01.055Z,40.27
2019-04-06T14:25:27.152Z,37.03
2019-04-06T14:26:56.139Z,36.93
2019-04-06T14:28:18.877Z,39.47
2019-04-06T14:29:40.742Z,38.50
2019-04-06T14:31:24.703Z,38.67
2019-04-06T14:32:36.430Z,38.53
2019-04-06T14:33:51.080Z,34.90
2019-04-06T14:35:05.487Z,35.23
2019-04-06T14:36:21.059Z,39.50
2019-04-06T14:37:54.861Z,39.17
2019-04-06T14:39:16.990Z,40.00
2019-04-06T14:40:52.716Z,37.50
2019-04-06T14:42:08.540Z,37.60
2019-04-06T14:43:43.780Z,33.97
2019-04-06T14:44:55.801Z,34.53
2019-04-06T14:46:31.363Z,38.57
2019-04-06T14:47:45.195Z,36.57
2019-04-06T14:49:27.580Z,37.93
2019-04-06T14:50:40.797Z,35.40
2019-04-06T14:52:03.249Z,34.97
2019-04-06T14:53:13.520Z,37.77
2019-04-06T14:54:36.728Z,38.70
2019-04-06T14:55:51.914Z,32.27
2019-04-06T14:57:13.791Z,35.90
2019-04-06T14:58:35.875Z,30.77
2019-04-06T15:00:00.151Z,31.50
2019-04-06T15:01:14.268Z,30.13
2019-04-06T15:02:50.296Z,32.80
2019-04-06T15:04:22.497Z,30.23
2019-04-06T15:05:44.634Z,32.20
2019-04-06T15:07:14.030Z,30.90
2019-04-06T15:08:36.089Z,31.23